sensor_id;sensor_type;location;lat;lon;timestamp;temperature;humidity
75457;SHT31;64036;48.266;14.192;2023-06-26T00:02:03;18.44;63.61
75457;SHT31;64036;48.266;14.192;2023-06-26T00:04:29;18.42;63.56
75457;SHT31;64036;48.266;14.192;2023-06-26T00:06:54;18.43;63.53
75457;SHT31;64036;48.266;14.192;2023-06-26T00:09:20;18.40;63.89
75457;SHT31;64036;48.266;14.192;2023-06-26T00:11:46;18.38;63.86
75457;SHT31;64036;48.266;14.192;2023-06-26T00:14:11;18.36;63.77
75457;SHT31;64036;48.266;14.192;2023-06-26T00:16:37;18.34;64.02
75457;SHT31;64036;48.266;14.192;2023-06-26T00:19:02;18.30;64.23
75457;SHT31;64036;48.266;14.192;2023-06-26T00:21:28;18.26;64.47
75457;SHT31;64036;48.266;14.192;2023-06-26T00:23:53;18.20;64.70
75457;SHT31;64036;48.266;14.192;2023-06-26T00:26:19;18.13;64.82
75457;SHT31;64036;48.266;14.192;2023-06-26T00:28:45;18.03;65.51
75457;SHT31;64036;48.266;14.192;2023-06-26T00:31:10;17.89;66.02
75457;SHT31;64036;48.266;14.192;2023-06-26T00:33:36;17.75;66.59
75457;SHT31;64036;48.266;14.192;2023-06-26T00:36:01;17.60;67.10
75457;SHT31;64036;48.266;14.192;2023-06-26T00:38:27;17.49;67.31
75457;SHT31;64036;48.266;14.192;2023-06-26T00:40:53;17.46;67.19
75457;SHT31;64036;48.266;14.192;2023-06-26T00:43:19;17.46;67.26
75457;SHT31;64036;48.266;14.192;2023-06-26T00:45:45;17.44;67.21
75457;SHT31;64036;48.266;14.192;2023-06-26T00:48:11;17.44;67.28
75457;SHT31;64036;48.266;14.192;2023-06-26T00:50:37;17.43;67.37
75457;SHT31;64036;48.266;14.192;2023-06-26T00:53:03;17.41;67.60
75457;SHT31;64036;48.266;14.192;2023-06-26T00:55:29;17.34;67.84
75457;SHT31;64036;48.266;14.192;2023-06-26T00:57:55;17.32;67.96
75457;SHT31;64036;48.266;14.192;2023-06-26T01:00:21;17.30;67.81
75457;SHT31;64036;48.266;14.192;2023-06-26T01:02:47;17.28;68.12
75457;SHT31;64036;48.266;14.192;2023-06-26T01:05:13;17.25;68.21
75457;SHT31;64036;48.266;14.192;2023-06-26T01:07:46;17.22;68.32
75457;SHT31;64036;48.266;14.192;2023-06-26T01:10:13;17.20;68.49
75457;SHT31;64036;48.266;14.192;2023-06-26T01:12:39;17.15;68.88
75457;SHT31;64036;48.266;14.192;2023-06-26T01:15:05;17.10;68.85
75457;SHT31;64036;48.266;14.192;2023-06-26T01:17:32;17.08;68.85
75457;SHT31;64036;48.266;14.192;2023-06-26T01:19:58;17.07;68.80
75457;SHT31;64036;48.266;14.192;2023-06-26T01:25:21;17.05;69.02
75457;SHT31;64036;48.266;14.192;2023-06-26T01:28:10;17.02;69.05
75457;SHT31;64036;48.266;14.192;2023-06-26T01:30:42;17.00;68.95
75457;SHT31;64036;48.266;14.192;2023-06-26T01:33:09;17.01;68.91
75457;SHT31;64036;48.266;14.192;2023-06-26T01:35:37;17.01;68.82
75457;SHT31;64036;48.266;14.192;2023-06-26T01:40:45;16.79;70.20
75457;SHT31;64036;48.266;14.192;2023-06-26T02:01:53;16.55;70.63
75457;SHT31;64036;48.266;14.192;2023-06-26T02:08:00;16.46;70.70
75457;SHT31;64036;48.266;14.192;2023-06-26T02:10:28;16.44;70.61
75457;SHT31;64036;48.266;14.192;2023-06-26T02:12:55;16.44;70.58
75457;SHT31;64036;48.266;14.192;2023-06-26T02:15:20;16.42;70.73
75457;SHT31;64036;48.266;14.192;2023-06-26T02:17:46;16.36;70.90
75457;SHT31;64036;48.266;14.192;2023-06-26T02:20:16;16.25;70.96
75457;SHT31;64036;48.266;14.192;2023-06-26T02:22:42;16.15;71.08
75457;SHT31;64036;48.266;14.192;2023-06-26T02:25:08;16.08;71.53
75457;SHT31;64036;48.266;14.192;2023-06-26T02:31:23;16.01;71.92
75457;SHT31;64036;48.266;14.192;2023-06-26T02:33:49;16.01;72.00
75457;SHT31;64036;48.266;14.192;2023-06-26T02:36:14;15.95;72.12
75457;SHT31;64036;48.266;14.192;2023-06-26T02:38:40;15.86;72.23
75457;SHT31;64036;48.266;14.192;2023-06-26T02:41:05;15.81;72.34
75457;SHT31;64036;48.266;14.192;2023-06-26T02:50:06;15.88;72.10
75457;SHT31;64036;48.266;14.192;2023-06-26T02:52:33;15.88;72.24
75457;SHT31;64036;48.266;14.192;2023-06-26T02:54:59;15.85;72.31
75457;SHT31;64036;48.266;14.192;2023-06-26T02:57:24;15.83;72.21
75457;SHT31;64036;48.266;14.192;2023-06-26T02:59:50;15.82;72.24
75457;SHT31;64036;48.266;14.192;2023-06-26T03:05:57;15.85;72.35
75457;SHT31;64036;48.266;14.192;2023-06-26T03:08:23;15.82;72.42
75457;SHT31;64036;48.266;14.192;2023-06-26T03:10:48;15.82;72.35
75457;SHT31;64036;48.266;14.192;2023-06-26T03:13:14;15.85;72.27
75457;SHT31;64036;48.266;14.192;2023-06-26T03:19:27;15.76;72.70
75457;SHT31;64036;48.266;14.192;2023-06-26T03:21:52;15.65;72.75
75457;SHT31;64036;48.266;14.192;2023-06-26T03:24:18;15.60;72.80
75457;SHT31;64036;48.266;14.192;2023-06-26T03:26:43;15.62;72.85
75457;SHT31;64036;48.266;14.192;2023-06-26T03:40:13;15.91;72.80
75457;SHT31;64036;48.266;14.192;2023-06-26T03:46:26;16.01;73.07
75457;SHT31;64036;48.266;14.192;2023-06-26T03:48:51;16.06;73.09
75457;SHT31;64036;48.266;14.192;2023-06-26T03:54:58;16.27;72.79
75457;SHT31;64036;48.266;14.192;2023-06-26T03:57:24;16.35;72.93
75457;SHT31;64036;48.266;14.192;2023-06-26T04:03:31;16.54;73.30
75457;SHT31;64036;48.266;14.192;2023-06-26T04:09:38;16.87;72.93
75457;SHT31;64036;48.266;14.192;2023-06-26T04:18:58;18.47;70.51
75457;SHT31;64036;48.266;14.192;2023-06-26T04:25:04;20.05;67.10
75457;SHT31;64036;48.266;14.192;2023-06-26T04:27:30;20.53;65.79
75457;SHT31;64036;48.266;14.192;2023-06-26T04:33:49;21.68;62.78
75457;SHT31;64036;48.266;14.192;2023-06-26T04:46:41;24.06;56.58
75457;SHT31;64036;48.266;14.192;2023-06-26T04:49:07;24.48;55.57
75457;SHT31;64036;48.266;14.192;2023-06-26T04:51:34;24.92;54.56
75457;SHT31;64036;48.266;14.192;2023-06-26T05:01:15;26.40;50.57
75457;SHT31;64036;48.266;14.192;2023-06-26T05:03:42;26.77;49.42
75457;SHT31;64036;48.266;14.192;2023-06-26T05:06:08;27.14;48.39
75457;SHT31;64036;48.266;14.192;2023-06-26T05:08:33;27.23;47.37
75457;SHT31;64036;48.266;14.192;2023-06-26T05:10:59;27.24;47.42
75457;SHT31;64036;48.266;14.192;2023-06-26T05:13:33;27.27;47.15
75457;SHT31;64036;48.266;14.192;2023-06-26T05:15:59;27.26;46.91
75457;SHT31;64036;48.266;14.192;2023-06-26T05:18:24;27.30;46.85
75457;SHT31;64036;48.266;14.192;2023-06-26T05:20:50;27.46;46.50
75457;SHT31;64036;48.266;14.192;2023-06-26T05:23:16;27.63;46.43
75457;SHT31;64036;48.266;14.192;2023-06-26T05:25:42;28.01;45.56
75457;SHT31;64036;48.266;14.192;2023-06-26T05:28:08;28.21;45.16
75457;SHT31;64036;48.266;14.192;2023-06-26T05:30:37;28.42;44.93
75457;SHT31;64036;48.266;14.192;2023-06-26T05:33:03;28.70;44.38
75457;SHT31;64036;48.266;14.192;2023-06-26T05:35:31;29.05;43.70
75457;SHT31;64036;48.266;14.192;2023-06-26T05:37:57;29.47;43.16
75457;SHT31;64036;48.266;14.192;2023-06-26T05:40:24;29.82;43.40
75457;SHT31;64036;48.266;14.192;2023-06-26T05:42:50;30.28;42.32
75457;SHT31;64036;48.266;14.192;2023-06-26T05:45:16;30.51;41.68
75457;SHT31;64036;48.266;14.192;2023-06-26T05:47:42;30.80;41.61
75457;SHT31;64036;48.266;14.192;2023-06-26T05:50:08;31.18;40.60
75457;SHT31;64036;48.266;14.192;2023-06-26T05:52:35;31.47;40.18
75457;SHT31;64036;48.266;14.192;2023-06-26T05:55:02;31.87;39.73
75457;SHT31;64036;48.266;14.192;2023-06-26T05:57:29;32.13;38.64
75457;SHT31;64036;48.266;14.192;2023-06-26T05:59:55;32.46;37.94
75457;SHT31;64036;48.266;14.192;2023-06-26T06:02:22;32.77;37.84
75457;SHT31;64036;48.266;14.192;2023-06-26T06:04:48;33.24;37.06
75457;SHT31;64036;48.266;14.192;2023-06-26T06:07:14;33.61;36.64
75457;SHT31;64036;48.266;14.192;2023-06-26T06:09:40;33.96;35.75
75457;SHT31;64036;48.266;14.192;2023-06-26T06:12:06;34.22;35.72
75457;SHT31;64036;48.266;14.192;2023-06-26T06:14:35;34.59;34.94
75457;SHT31;64036;48.266;14.192;2023-06-26T06:17:01;34.97;34.63
75457;SHT31;64036;48.266;14.192;2023-06-26T06:19:27;35.32;34.01
75457;SHT31;64036;48.266;14.192;2023-06-26T06:21:53;35.73;33.74
75457;SHT31;64036;48.266;14.192;2023-06-26T06:24:19;35.99;33.38
75457;SHT31;64036;48.266;14.192;2023-06-26T06:26:45;36.24;32.83
75457;SHT31;64036;48.266;14.192;2023-06-26T06:29:10;36.53;32.15
75457;SHT31;64036;48.266;14.192;2023-06-26T06:31:36;36.77;32.03
75457;SHT31;64036;48.266;14.192;2023-06-26T06:34:01;37.00;31.82
75457;SHT31;64036;48.266;14.192;2023-06-26T06:36:27;37.43;31.05
75457;SHT31;64036;48.266;14.192;2023-06-26T06:38:53;37.77;30.77
75457;SHT31;64036;48.266;14.192;2023-06-26T06:41:19;38.13;30.41
75457;SHT31;64036;48.266;14.192;2023-06-26T06:43:46;38.36;29.30
75457;SHT31;64036;48.266;14.192;2023-06-26T06:46:11;38.46;28.86
75457;SHT31;64036;48.266;14.192;2023-06-26T06:48:37;38.61;29.46
75457;SHT31;64036;48.266;14.192;2023-06-26T06:51:03;38.87;28.30
75457;SHT31;64036;48.266;14.192;2023-06-26T06:53:28;39.07;27.86
75457;SHT31;64036;48.266;14.192;2023-06-26T06:55:55;39.20;27.95
75457;SHT31;64036;48.266;14.192;2023-06-26T06:58:21;39.55;27.31
75457;SHT31;64036;48.266;14.192;2023-06-26T07:00:48;39.91;26.74
75457;SHT31;64036;48.266;14.192;2023-06-26T07:03:14;40.18;26.24
75457;SHT31;64036;48.266;14.192;2023-06-26T07:05:43;40.23;26.60
75457;SHT31;64036;48.266;14.192;2023-06-26T07:08:09;40.36;26.12
75457;SHT31;64036;48.266;14.192;2023-06-26T07:10:35;40.45;25.90
75457;SHT31;64036;48.266;14.192;2023-06-26T07:13:01;40.32;26.17
75457;SHT31;64036;48.266;14.192;2023-06-26T07:15:27;40.35;26.21
75457;SHT31;64036;48.266;14.192;2023-06-26T07:17:53;40.46;26.00
75457;SHT31;64036;48.266;14.192;2023-06-26T07:20:18;40.52;25.74
75457;SHT31;64036;48.266;14.192;2023-06-26T07:22:44;40.62;25.71
75457;SHT31;64036;48.266;14.192;2023-06-26T07:25:10;40.74;25.66
75457;SHT31;64036;48.266;14.192;2023-06-26T07:27:40;40.81;25.50
75457;SHT31;64036;48.266;14.192;2023-06-26T07:30:07;40.73;25.66
75457;SHT31;64036;48.266;14.192;2023-06-26T07:32:36;40.94;25.35
75457;SHT31;64036;48.266;14.192;2023-06-26T07:35:03;41.07;25.58
75457;SHT31;64036;48.266;14.192;2023-06-26T07:37:29;41.27;24.99
75457;SHT31;64036;48.266;14.192;2023-06-26T07:39:55;41.31;24.86
75457;SHT31;64036;48.266;14.192;2023-06-26T07:42:20;41.33;25.49
75457;SHT31;64036;48.266;14.192;2023-06-26T07:44:46;41.46;25.75
75457;SHT31;64036;48.266;14.192;2023-06-26T07:47:12;41.59;24.92
75457;SHT31;64036;48.266;14.192;2023-06-26T07:49:38;41.81;24.92
75457;SHT31;64036;48.266;14.192;2023-06-26T07:52:05;42.01;24.76
75457;SHT31;64036;48.266;14.192;2023-06-26T07:54:32;42.06;24.66
75457;SHT31;64036;48.266;14.192;2023-06-26T07:59:29;42.64;24.11
75457;SHT31;64036;48.266;14.192;2023-06-26T08:01:56;42.78;23.99
75457;SHT31;64036;48.266;14.192;2023-06-26T08:04:23;42.87;24.63
75457;SHT31;64036;48.266;14.192;2023-06-26T08:06:52;42.90;24.00
75457;SHT31;64036;48.266;14.192;2023-06-26T08:09:21;42.76;23.92
75457;SHT31;64036;48.266;14.192;2023-06-26T08:11:50;42.22;24.19
75457;SHT31;64036;48.266;14.192;2023-06-26T08:14:16;41.97;24.09
75457;SHT31;64036;48.266;14.192;2023-06-26T08:16:41;42.13;23.98
75457;SHT31;64036;48.266;14.192;2023-06-26T08:19:11;42.38;24.65
75457;SHT31;64036;48.266;14.192;2023-06-26T08:21:39;42.53;24.10
75457;SHT31;64036;48.266;14.192;2023-06-26T08:24:10;42.59;23.95
75457;SHT31;64036;48.266;14.192;2023-06-26T08:26:36;42.49;24.00
75457;SHT31;64036;48.266;14.192;2023-06-26T08:29:02;42.45;23.96
75457;SHT31;64036;48.266;14.192;2023-06-26T08:31:36;42.17;24.16
75457;SHT31;64036;48.266;14.192;2023-06-26T08:34:03;42.12;24.24
75457;SHT31;64036;48.266;14.192;2023-06-26T08:36:30;42.20;24.52
75457;SHT31;64036;48.266;14.192;2023-06-26T08:38:56;42.26;24.51
75457;SHT31;64036;48.266;14.192;2023-06-26T08:41:22;42.60;23.92
75457;SHT31;64036;48.266;14.192;2023-06-26T08:43:48;42.69;23.91
75457;SHT31;64036;48.266;14.192;2023-06-26T08:46:16;42.66;24.84
75457;SHT31;64036;48.266;14.192;2023-06-26T08:48:41;42.66;23.98
75457;SHT31;64036;48.266;14.192;2023-06-26T08:51:15;42.63;24.25
75457;SHT31;64036;48.266;14.192;2023-06-26T08:53:45;42.64;23.86
75457;SHT31;64036;48.266;14.192;2023-06-26T08:56:14;42.42;24.14
75457;SHT31;64036;48.266;14.192;2023-06-26T08:58:42;42.40;24.03
75457;SHT31;64036;48.266;14.192;2023-06-26T09:01:09;42.10;24.38
75457;SHT31;64036;48.266;14.192;2023-06-26T09:03:36;42.03;24.56
75457;SHT31;64036;48.266;14.192;2023-06-26T09:06:02;41.89;24.33
75457;SHT31;64036;48.266;14.192;2023-06-26T09:08:27;41.61;24.68
75457;SHT31;64036;48.266;14.192;2023-06-26T09:10:53;41.33;25.47
75457;SHT31;64036;48.266;14.192;2023-06-26T09:13:19;41.31;25.69
75457;SHT31;64036;48.266;14.192;2023-06-26T09:15:45;41.65;25.27
75457;SHT31;64036;48.266;14.192;2023-06-26T09:18:11;41.70;25.66
75457;SHT31;64036;48.266;14.192;2023-06-26T09:20:38;41.64;25.43
75457;SHT31;64036;48.266;14.192;2023-06-26T09:23:04;41.75;25.76
75457;SHT31;64036;48.266;14.192;2023-06-26T09:25:30;41.94;25.45
75457;SHT31;64036;48.266;14.192;2023-06-26T09:27:56;41.87;25.77
75457;SHT31;64036;48.266;14.192;2023-06-26T09:30:23;41.79;26.59
75457;SHT31;64036;48.266;14.192;2023-06-26T09:32:48;41.78;26.07
75457;SHT31;64036;48.266;14.192;2023-06-26T09:35:15;41.79;24.95
75457;SHT31;64036;48.266;14.192;2023-06-26T09:37:42;41.78;25.88
75457;SHT31;64036;48.266;14.192;2023-06-26T09:40:09;41.75;26.66
75457;SHT31;64036;48.266;14.192;2023-06-26T09:42:35;41.64;25.90
75457;SHT31;64036;48.266;14.192;2023-06-26T09:45:01;41.61;25.96
75457;SHT31;64036;48.266;14.192;2023-06-26T09:47:30;41.55;26.17
75457;SHT31;64036;48.266;14.192;2023-06-26T09:49:59;41.66;25.67
75457;SHT31;64036;48.266;14.192;2023-06-26T09:52:25;41.79;25.62
75457;SHT31;64036;48.266;14.192;2023-06-26T09:55:10;41.66;25.95
75457;SHT31;64036;48.266;14.192;2023-06-26T09:57:38;41.44;25.17
75457;SHT31;64036;48.266;14.192;2023-06-26T10:00:04;41.18;25.72
75457;SHT31;64036;48.266;14.192;2023-06-26T10:02:33;41.28;26.29
75457;SHT31;64036;48.266;14.192;2023-06-26T10:04:59;41.19;26.09
75457;SHT31;64036;48.266;14.192;2023-06-26T10:07:24;41.21;26.46
75457;SHT31;64036;48.266;14.192;2023-06-26T10:09:50;41.24;26.63
75457;SHT31;64036;48.266;14.192;2023-06-26T10:12:19;41.11;26.95
75457;SHT31;64036;48.266;14.192;2023-06-26T10:14:56;40.96;26.57
75457;SHT31;64036;48.266;14.192;2023-06-26T10:17:24;40.71;27.43
75457;SHT31;64036;48.266;14.192;2023-06-26T10:19:55;40.61;26.19
75457;SHT31;64036;48.266;14.192;2023-06-26T10:22:25;40.37;26.75
75457;SHT31;64036;48.266;14.192;2023-06-26T10:24:55;40.15;26.17
75457;SHT31;64036;48.266;14.192;2023-06-26T10:27:25;39.97;27.17
75457;SHT31;64036;48.266;14.192;2023-06-26T10:29:54;40.03;26.95
75457;SHT31;64036;48.266;14.192;2023-06-26T10:32:24;39.67;27.33
75457;SHT31;64036;48.266;14.192;2023-06-26T10:34:52;39.47;27.72
75457;SHT31;64036;48.266;14.192;2023-06-26T10:37:18;39.32;27.45
75457;SHT31;64036;48.266;14.192;2023-06-26T10:39:47;39.19;28.17
75457;SHT31;64036;48.266;14.192;2023-06-26T10:42:18;39.01;27.16
75457;SHT31;64036;48.266;14.192;2023-06-26T10:44:45;38.89;27.21
75457;SHT31;64036;48.266;14.192;2023-06-26T10:47:33;38.50;28.03
75457;SHT31;64036;48.266;14.192;2023-06-26T10:50:20;38.37;28.62
75457;SHT31;64036;48.266;14.192;2023-06-26T10:53:09;38.31;28.71
75457;SHT31;64036;48.266;14.192;2023-06-26T10:55:50;38.16;28.74
75457;SHT31;64036;48.266;14.192;2023-06-26T10:58:33;37.99;28.68
75457;SHT31;64036;48.266;14.192;2023-06-26T11:03:46;37.58;28.03
75457;SHT31;64036;48.266;14.192;2023-06-26T11:06:18;37.46;29.26
75457;SHT31;64036;48.266;14.192;2023-06-26T11:08:46;37.49;29.34
75457;SHT31;64036;48.266;14.192;2023-06-26T11:11:13;37.31;28.65
75457;SHT31;64036;48.266;14.192;2023-06-26T11:13:39;37.08;28.63
75457;SHT31;64036;48.266;14.192;2023-06-26T11:16:06;36.78;29.59
75457;SHT31;64036;48.266;14.192;2023-06-26T11:18:32;36.49;30.04
75457;SHT31;64036;48.266;14.192;2023-06-26T11:23:39;36.38;32.16
75457;SHT31;64036;48.266;14.192;2023-06-26T11:26:19;36.35;32.77
75457;SHT31;64036;48.266;14.192;2023-06-26T11:28:54;36.48;32.03
75457;SHT31;64036;48.266;14.192;2023-06-26T11:31:30;36.55;31.80
75457;SHT31;64036;48.266;14.192;2023-06-26T11:34:02;36.33;30.89
75457;SHT31;64036;48.266;14.192;2023-06-26T11:36:33;36.15;30.83
75457;SHT31;64036;48.266;14.192;2023-06-26T11:39:03;36.06;30.28
75457;SHT31;64036;48.266;14.192;2023-06-26T11:41:31;35.94;31.74
75457;SHT31;64036;48.266;14.192;2023-06-26T11:44:02;35.92;32.68
75457;SHT31;64036;48.266;14.192;2023-06-26T11:46:34;36.04;32.16
75457;SHT31;64036;48.266;14.192;2023-06-26T11:49:02;35.92;31.36
75457;SHT31;64036;48.266;14.192;2023-06-26T11:51:29;35.73;31.49
75457;SHT31;64036;48.266;14.192;2023-06-26T11:53:55;35.90;30.70
75457;SHT31;64036;48.266;14.192;2023-06-26T11:56:22;35.97;30.63
75457;SHT31;64036;48.266;14.192;2023-06-26T11:59:03;36.01;30.38
75457;SHT31;64036;48.266;14.192;2023-06-26T12:01:38;36.23;30.12
75457;SHT31;64036;48.266;14.192;2023-06-26T12:04:11;36.28;29.80
75457;SHT31;64036;48.266;14.192;2023-06-26T12:06:38;36.20;30.73
75457;SHT31;64036;48.266;14.192;2023-06-26T12:09:07;36.16;29.81
75457;SHT31;64036;48.266;14.192;2023-06-26T12:11:36;36.03;30.66
75457;SHT31;64036;48.266;14.192;2023-06-26T12:14:07;35.90;30.57
75457;SHT31;64036;48.266;14.192;2023-06-26T12:16:34;35.76;30.23
75457;SHT31;64036;48.266;14.192;2023-06-26T12:19:02;35.67;31.27
75457;SHT31;64036;48.266;14.192;2023-06-26T12:24:10;35.66;30.64
75457;SHT31;64036;48.266;14.192;2023-06-26T12:26:44;35.46;31.54
75457;SHT31;64036;48.266;14.192;2023-06-26T12:29:13;35.36;32.12
75457;SHT31;64036;48.266;14.192;2023-06-26T12:31:46;35.24;30.31
75457;SHT31;64036;48.266;14.192;2023-06-26T12:34:18;35.14;30.43
75457;SHT31;64036;48.266;14.192;2023-06-26T12:36:50;35.14;31.33
75457;SHT31;64036;48.266;14.192;2023-06-26T12:39:17;35.18;31.97
75457;SHT31;64036;48.266;14.192;2023-06-26T12:41:51;35.29;31.25
75457;SHT31;64036;48.266;14.192;2023-06-26T12:44:26;35.35;30.01
75457;SHT31;64036;48.266;14.192;2023-06-26T12:46:55;35.09;30.75
75457;SHT31;64036;48.266;14.192;2023-06-26T12:49:30;35.02;32.42
75457;SHT31;64036;48.266;14.192;2023-06-26T12:52:01;35.03;32.06
75457;SHT31;64036;48.266;14.192;2023-06-26T12:54:29;35.03;31.74
75457;SHT31;64036;48.266;14.192;2023-06-26T12:56:55;34.98;32.56
75457;SHT31;64036;48.266;14.192;2023-06-26T12:59:21;34.83;31.28
75457;SHT31;64036;48.266;14.192;2023-06-26T13:01:47;34.72;32.19
75457;SHT31;64036;48.266;14.192;2023-06-26T13:04:13;34.67;31.78
75457;SHT31;64036;48.266;14.192;2023-06-26T13:06:39;34.71;32.04
75457;SHT31;64036;48.266;14.192;2023-06-26T13:09:05;34.71;31.25
75457;SHT31;64036;48.266;14.192;2023-06-26T13:11:31;34.59;30.93
75457;SHT31;64036;48.266;14.192;2023-06-26T13:14:01;34.62;30.91
75457;SHT31;64036;48.266;14.192;2023-06-26T13:16:26;34.65;31.24
75457;SHT31;64036;48.266;14.192;2023-06-26T13:18:52;34.66;31.67
75457;SHT31;64036;48.266;14.192;2023-06-26T13:21:17;34.64;31.46
75457;SHT31;64036;48.266;14.192;2023-06-26T13:23:43;34.53;32.66
75457;SHT31;64036;48.266;14.192;2023-06-26T13:26:09;34.42;32.32
75457;SHT31;64036;48.266;14.192;2023-06-26T13:28:35;34.32;32.11
75457;SHT31;64036;48.266;14.192;2023-06-26T13:31:02;34.19;32.64
75457;SHT31;64036;48.266;14.192;2023-06-26T13:33:28;34.05;33.11
75457;SHT31;64036;48.266;14.192;2023-06-26T13:35:54;33.97;33.13
75457;SHT31;64036;48.266;14.192;2023-06-26T13:38:20;33.92;32.37
75457;SHT31;64036;48.266;14.192;2023-06-26T13:40:54;33.90;32.69
75457;SHT31;64036;48.266;14.192;2023-06-26T13:43:24;33.88;32.73
75457;SHT31;64036;48.266;14.192;2023-06-26T13:45:50;33.86;33.21
75457;SHT31;64036;48.266;14.192;2023-06-26T13:48:15;33.81;32.43
75457;SHT31;64036;48.266;14.192;2023-06-26T13:50:41;33.74;32.22
75457;SHT31;64036;48.266;14.192;2023-06-26T13:53:07;33.77;32.16
75457;SHT31;64036;48.266;14.192;2023-06-26T13:55:33;33.70;33.23
75457;SHT31;64036;48.266;14.192;2023-06-26T13:58:00;33.59;33.50
75457;SHT31;64036;48.266;14.192;2023-06-26T14:00:30;33.51;34.31
75457;SHT31;64036;48.266;14.192;2023-06-26T14:03:00;33.55;34.06
75457;SHT31;64036;48.266;14.192;2023-06-26T14:05:28;33.51;32.79
75457;SHT31;64036;48.266;14.192;2023-06-26T14:07:56;33.51;32.18
75457;SHT31;64036;48.266;14.192;2023-06-26T14:10:22;33.44;32.60
75457;SHT31;64036;48.266;14.192;2023-06-26T14:12:48;33.37;32.94
75457;SHT31;64036;48.266;14.192;2023-06-26T14:15:14;33.30;31.80
75457;SHT31;64036;48.266;14.192;2023-06-26T14:17:40;33.21;31.79
75457;SHT31;64036;48.266;14.192;2023-06-26T14:20:08;33.13;31.57
75457;SHT31;64036;48.266;14.192;2023-06-26T14:22:37;33.01;31.27
75457;SHT31;64036;48.266;14.192;2023-06-26T14:25:06;32.87;31.64
75457;SHT31;64036;48.266;14.192;2023-06-26T14:27:34;32.84;32.64
75457;SHT31;64036;48.266;14.192;2023-06-26T14:30:01;32.85;33.52
75457;SHT31;64036;48.266;14.192;2023-06-26T14:32:28;32.85;33.20
75457;SHT31;64036;48.266;14.192;2023-06-26T14:34:54;32.81;33.09
75457;SHT31;64036;48.266;14.192;2023-06-26T14:37:21;32.82;33.14
75457;SHT31;64036;48.266;14.192;2023-06-26T14:39:46;32.82;32.24
75457;SHT31;64036;48.266;14.192;2023-06-26T14:42:12;32.81;32.83
75457;SHT31;64036;48.266;14.192;2023-06-26T14:44:38;32.79;32.78
75457;SHT31;64036;48.266;14.192;2023-06-26T14:47:03;32.75;32.93
75457;SHT31;64036;48.266;14.192;2023-06-26T14:49:30;32.68;32.07
75457;SHT31;64036;48.266;14.192;2023-06-26T14:51:56;32.62;32.57
75457;SHT31;64036;48.266;14.192;2023-06-26T14:54:22;32.58;32.93
75457;SHT31;64036;48.266;14.192;2023-06-26T14:56:47;32.51;33.38
75457;SHT31;64036;48.266;14.192;2023-06-26T14:59:13;32.35;32.69
75457;SHT31;64036;48.266;14.192;2023-06-26T15:01:39;32.26;33.08
75457;SHT31;64036;48.266;14.192;2023-06-26T15:04:05;32.20;33.25
75457;SHT31;64036;48.266;14.192;2023-06-26T15:06:31;32.19;32.87
75457;SHT31;64036;48.266;14.192;2023-06-26T15:08:58;32.18;33.30
75457;SHT31;64036;48.266;14.192;2023-06-26T15:11:24;32.15;33.11
75457;SHT31;64036;48.266;14.192;2023-06-26T15:13:50;32.11;33.70
75457;SHT31;64036;48.266;14.192;2023-06-26T15:16:15;32.08;33.47
75457;SHT31;64036;48.266;14.192;2023-06-26T15:18:41;32.08;33.73
75457;SHT31;64036;48.266;14.192;2023-06-26T15:21:07;32.06;33.38
75457;SHT31;64036;48.266;14.192;2023-06-26T15:23:33;32.01;33.60
75457;SHT31;64036;48.266;14.192;2023-06-26T15:25:59;31.97;33.46
75457;SHT31;64036;48.266;14.192;2023-06-26T15:28:25;31.93;33.36
75457;SHT31;64036;48.266;14.192;2023-06-26T15:30:51;31.92;33.01
75457;SHT31;64036;48.266;14.192;2023-06-26T15:33:16;31.88;33.14
75457;SHT31;64036;48.266;14.192;2023-06-26T15:35:42;31.83;33.10
75457;SHT31;64036;48.266;14.192;2023-06-26T15:38:08;31.73;32.68
75457;SHT31;64036;48.266;14.192;2023-06-26T15:40:33;31.64;33.80
75457;SHT31;64036;48.266;14.192;2023-06-26T15:42:59;31.61;33.81
75457;SHT31;64036;48.266;14.192;2023-06-26T15:45:24;31.60;34.35
75457;SHT31;64036;48.266;14.192;2023-06-26T15:47:51;31.65;33.76
75457;SHT31;64036;48.266;14.192;2023-06-26T15:50:18;31.69;33.39
75457;SHT31;64036;48.266;14.192;2023-06-26T15:52:45;31.65;34.51
75457;SHT31;64036;48.266;14.192;2023-06-26T15:55:11;31.57;34.38
75457;SHT31;64036;48.266;14.192;2023-06-26T15:57:38;31.47;34.72
75457;SHT31;64036;48.266;14.192;2023-06-26T16:00:04;31.50;34.57
75457;SHT31;64036;48.266;14.192;2023-06-26T16:02:30;31.52;33.69
75457;SHT31;64036;48.266;14.192;2023-06-26T16:04:56;31.49;34.43
75457;SHT31;64036;48.266;14.192;2023-06-26T16:07:21;31.41;33.87
75457;SHT31;64036;48.266;14.192;2023-06-26T16:09:47;31.37;33.94
75457;SHT31;64036;48.266;14.192;2023-06-26T16:12:13;31.36;34.21
75457;SHT31;64036;48.266;14.192;2023-06-26T16:14:39;31.34;34.27
75457;SHT31;64036;48.266;14.192;2023-06-26T16:17:06;31.31;34.80
75457;SHT31;64036;48.266;14.192;2023-06-26T16:19:33;31.26;35.12
75457;SHT31;64036;48.266;14.192;2023-06-26T16:21:59;31.22;36.17
75457;SHT31;64036;48.266;14.192;2023-06-26T16:24:24;31.14;36.20
75457;SHT31;64036;48.266;14.192;2023-06-26T16:26:50;31.13;36.23
75457;SHT31;64036;48.266;14.192;2023-06-26T16:29:15;31.13;35.78
75457;SHT31;64036;48.266;14.192;2023-06-26T16:31:41;31.12;35.67
75457;SHT31;64036;48.266;14.192;2023-06-26T16:34:07;31.12;35.52
75457;SHT31;64036;48.266;14.192;2023-06-26T16:36:32;31.11;36.25
75457;SHT31;64036;48.266;14.192;2023-06-26T16:38:58;31.08;35.84
75457;SHT31;64036;48.266;14.192;2023-06-26T16:41:26;31.05;35.54
75457;SHT31;64036;48.266;14.192;2023-06-26T16:43:52;30.98;35.50
75457;SHT31;64036;48.266;14.192;2023-06-26T16:46:17;30.96;36.95
75457;SHT31;64036;48.266;14.192;2023-06-26T16:48:43;30.88;36.62
75457;SHT31;64036;48.266;14.192;2023-06-26T16:51:09;30.85;36.38
75457;SHT31;64036;48.266;14.192;2023-06-26T16:53:35;30.82;36.24
75457;SHT31;64036;48.266;14.192;2023-06-26T16:56:00;30.82;37.33
75457;SHT31;64036;48.266;14.192;2023-06-26T16:58:26;30.80;37.78
75457;SHT31;64036;48.266;14.192;2023-06-26T17:00:51;30.75;37.51
75457;SHT31;64036;48.266;14.192;2023-06-26T17:03:17;30.71;37.19
75457;SHT31;64036;48.266;14.192;2023-06-26T17:05:46;30.68;36.87
75457;SHT31;64036;48.266;14.192;2023-06-26T17:08:13;30.65;36.40
75457;SHT31;64036;48.266;14.192;2023-06-26T17:10:39;30.63;36.56